Featherville, Idaho
Current Conditions -  °F | °C
As of 12:58 PM on Thursday 23 Oct 2014 (Local Time) from KMUO Reporting Station
Overcast Overcast  
Wind Chill: 60°   Ceiling: 7000
Heat Index: 60°   Visibility: 10mi
Dew Point: 41°   Wind: 6mph
Humidity: 49%   Direction: 90°E
Pressure: 30.04"   Gusts: NA
Location:  43.2609°N, 115.781°W
Report Text: KMUO 231858Z 09005KT 10SM BKN070 OVC100 16/05 A3004 RMK AO2A PRESFR SLP163 T01580050
Loading
Personal Weather Stations






























Interactive Weather Map
Tropical Storm Tracking
New forecast layout! Learn more

10-Day Weather Forecast

Advertisements
Track Severe Weather on mobile